Butterfly — C6UP2 — position and weather

sailwx.info

Track history (hours):
 
Tides and Currents Weather Stations Pressure Air Temp Water Temp Dewpoint Dewpoint Depression Visibility Wind Speed Wind Dir Waves Ship Positions

Butterfly

Last reported at 2016-May-06 01:33 UTC. Time now 2016-May-06 01:37 UTC.
Position N 50°51' E 001°26'.

Length 182 m; draft 7.2 m.

Type: Tanker. MMSI: 311985000.

Date/timePositionNaut miles runAvg speedWind from/ knotsBaromVisibWave heightAir tempDewpointWater temp
2016-May-06 01:33N 50°51' E 001°26'1413.7
2016-May-06 00:33N 50°39' E 001°16'2613.2
2016-May-05 22:33N 50°26' E 000°39'1413.9
2016-May-05 21:33N 50°23' E 000°18'1514.7
2016-May-05 20:33N 50°19' W 000°04'1515.5
2016-May-05 19:33N 50°15' W 000°27'1616.0
2016-May-05 18:33N 50°10' W 000°51'1616.0
2016-May-05 17:33N 50°06' W 001°16'1515.0
2016-May-05 16:33N 50°03' W 001°38'1313.5
2016-May-05 15:33N 49°59' W 001°59'1211.8
2016-May-05 14:33N 49°56' W 002°16'1110.9
2016-May-05 13:33N 49°53' W 002°33'1110.6
2016-May-05 12:33N 49°50' W 002°49'1110.8
2016-May-05 11:33N 49°50' W 003°05'1111.3
2016-May-05 10:33N 49°50' W 003°23'1211.7
2016-May-05 09:33N 49°49' W 003°41'1212.3
2016-May-05 08:33N 49°50' W 004°00'1312.7
2016-May-05 07:33N 49°50' W 004°20'1313.3
2016-May-05 06:33N 49°50' W 004°40'1413.5
2016-May-05 05:33N 49°50' W 005°01'1514.1
2016-May-05 04:31N 49°50' W 005°24'1414.5
2016-May-05 03:33N 49°51' W 005°46'1212.5
2016-May-05 02:33N 49°59' W 005°60'1211.8
2016-May-05 01:33N 50°11' W 005°60'1211.8
2016-May-05 00:33N 50°23' W 005°60'1312.5
2016-May-04 23:33N 50°35' W 006°00'1313.2
2016-May-04 22:33N 50°48' W 006°00'1313.4
2016-May-04 21:33N 51°02' W 006°00'1513.3
2016-May-04 20:24N 51°17' W 006°00'3811.8
2016-May-04 17:09N 51°55' W 005°52'710.8
2016-May-04 16:32N 52°02' W 005°49'1111.2
2016-May-04 15:33N 52°13' W 005°47'1212.2
2016-May-04 14:33N 52°25' W 005°44'  
2016-May-02 06:31N 52°34' W 005°39'1414.3
2016-May-02 05:33N 52°20' W 005°41'1514.8
2016-May-02 04:33N 52°06' W 005°42'2712.8
2016-May-02 02:27N 51°39' W 005°45'1112.7
2016-May-02 01:33N 51°38' W 005°27'1010.3
2016-May-02 00:33N 51°40' W 005°11'104 2.5
2016-Apr-30 06:33N 51°12' W 007°51'3213.1
2016-Apr-30 04:07N 51°05' W 008°41'913.0
2016-Apr-30 03:25N 51°04' W 008°55'1113.0
2016-Apr-30 02:33N 51°03' W 009°13'1312.9
2016-Apr-30 01:33N 51°02' W 009°34'1312.9
2016-Apr-30 00:33N 51°00' W 009°54'  
Track history (hours):
 
Tides and Currents Weather Stations Pressure Air Temp Water Temp Dewpoint Dewpoint Depression Visibility Wind Speed Wind Dir Waves Ship Positions

Butterfly

Last reported at 2016-May-06 01:33 UTC. Time now 2016-May-06 01:37 UTC.
Position N 50°51' E 001°26'.

Length 182 m; draft 7.2 m.

Type: Tanker. MMSI: 311985000.

Date/timePositionNaut miles runAvg speedWind from/ knotsBaromVisibWave heightAir tempDewpointWater temp
2016-May-06 01:33N 50°51' E 001°26'1413.7
2016-May-06 00:33N 50°39' E 001°16'2613.2
2016-May-05 22:33N 50°26' E 000°39'1413.9
2016-May-05 21:33N 50°23' E 000°18'1514.7
2016-May-05 20:33N 50°19' W 000°04'1515.5
2016-May-05 19:33N 50°15' W 000°27'1616.0
2016-May-05 18:33N 50°10' W 000°51'1616.0
2016-May-05 17:33N 50°06' W 001°16'1515.0
2016-May-05 16:33N 50°03' W 001°38'1313.5
2016-May-05 15:33N 49°59' W 001°59'1211.8
2016-May-05 14:33N 49°56' W 002°16'1110.9
2016-May-05 13:33N 49°53' W 002°33'1110.6
2016-May-05 12:33N 49°50' W 002°49'1110.8
2016-May-05 11:33N 49°50' W 003°05'1111.3
2016-May-05 10:33N 49°50' W 003°23'1211.7
2016-May-05 09:33N 49°49' W 003°41'1212.3
2016-May-05 08:33N 49°50' W 004°00'1312.7
2016-May-05 07:33N 49°50' W 004°20'1313.3
2016-May-05 06:33N 49°50' W 004°40'1413.5
2016-May-05 05:33N 49°50' W 005°01'1514.1
2016-May-05 04:31N 49°50' W 005°24'1414.5
2016-May-05 03:33N 49°51' W 005°46'1212.5
2016-May-05 02:33N 49°59' W 005°60'1211.8
2016-May-05 01:33N 50°11' W 005°60'1211.8
2016-May-05 00:33N 50°23' W 005°60'1312.5
2016-May-04 23:33N 50°35' W 006°00'1313.2
2016-May-04 22:33N 50°48' W 006°00'1313.4
2016-May-04 21:33N 51°02' W 006°00'1513.3
2016-May-04 20:24N 51°17' W 006°00'3811.8
2016-May-04 17:09N 51°55' W 005°52'710.8
2016-May-04 16:32N 52°02' W 005°49'1111.2
2016-May-04 15:33N 52°13' W 005°47'1212.2
2016-May-04 14:33N 52°25' W 005°44'  
2016-May-02 06:31N 52°34' W 005°39'1414.3
2016-May-02 05:33N 52°20' W 005°41'1514.8
2016-May-02 04:33N 52°06' W 005°42'2712.8
2016-May-02 02:27N 51°39' W 005°45'1112.7
2016-May-02 01:33N 51°38' W 005°27'1010.3
2016-May-02 00:33N 51°40' W 005°11'104 2.5
2016-Apr-30 06:33N 51°12' W 007°51'3213.1
2016-Apr-30 04:07N 51°05' W 008°41'913.0
2016-Apr-30 03:25N 51°04' W 008°55'1113.0
2016-Apr-30 02:33N 51°03' W 009°13'1312.9
2016-Apr-30 01:33N 51°02' W 009°34'1312.9
2016-Apr-30 00:33N 51°00' W 009°54'  

Dump ship's entire track history